Weather at Gilgal Airstrip

Public forecast

Using degrees Celsius for public forecast. Weather courtesy of forecast.io.

Closest aviation weather report (METAR) to Gilgal Airstrip

Closest report is Simanggang Airport, 51.6 nm (95.5 km) NNE.

(retrieved 0 seconds ago)

Closest aviation forecast (TAF) to Gilgal Airstrip

Closest forecast is Kuching International Airport, 75.3 nm (139.5 km) NW.

2024/06/14 12:09 (retrieved 4 hours ago)

TAF WBGG 141100Z 1412/1512 VRB03KT 9999 FEW020 TEMPO 1414/1418 31010KT 5000 TSRA FEW015CB SCT020